sensor_id;sensor_type;location;lat;lon;timestamp;pressure;altitude;pressure_sealevel;temperature;humidity
929;BME280;451;47.988;7.842;2022-07-09T00:02:12;99526.53;;;16.49;95.96
929;BME280;451;47.988;7.842;2022-07-09T00:11:14;99524.75;;;16.65;94.58
929;BME280;451;47.988;7.842;2022-07-09T00:20:15;99504.03;;;16.45;93.54
929;BME280;451;47.988;7.842;2022-07-09T00:29:17;99522.69;;;16.37;93.07
929;BME280;451;47.988;7.842;2022-07-09T00:38:18;99511.88;;;16.24;95.34
929;BME280;451;47.988;7.842;2022-07-09T00:47:20;99496.88;;;16.31;93.14
929;BME280;451;47.988;7.842;2022-07-09T00:56:22;99497.88;;;16.16;93.32
929;BME280;451;47.988;7.842;2022-07-09T01:05:24;99478.75;;;16.20;92.42
929;BME280;451;47.988;7.842;2022-07-09T01:14:26;99456.69;;;16.05;91.93
929;BME280;451;47.988;7.842;2022-07-09T01:23:28;99497.38;;;16.12;91.63
929;BME280;451;47.988;7.842;2022-07-09T01:32:30;99474.94;;;15.85;92.85
929;BME280;451;47.988;7.842;2022-07-09T01:41:31;99485.91;;;15.59;93.34
929;BME280;451;47.988;7.842;2022-07-09T01:50:33;99498.03;;;15.77;92.87
929;BME280;451;47.988;7.842;2022-07-09T01:59:35;99485.50;;;15.70;90.93
929;BME280;451;47.988;7.842;2022-07-09T02:08:37;99481.00;;;15.71;91.08
929;BME280;451;47.988;7.842;2022-07-09T02:17:40;99479.97;;;15.80;92.63
929;BME280;451;47.988;7.842;2022-07-09T02:26:42;99482.38;;;15.67;96.16
929;BME280;451;47.988;7.842;2022-07-09T02:35:44;99487.81;;;15.43;97.05
929;BME280;451;47.988;7.842;2022-07-09T02:44:45;99490.94;;;15.23;99.68
929;BME280;451;47.988;7.842;2022-07-09T02:53:47;99500.19;;;15.19;99.72
929;BME280;451;47.988;7.842;2022-07-09T03:02:49;99494.59;;;15.14;100.00
929;BME280;451;47.988;7.842;2022-07-09T03:11:51;99475.63;;;15.03;100.00
929;BME280;451;47.988;7.842;2022-07-09T03:20:54;99484.84;;;14.84;100.00
929;BME280;451;47.988;7.842;2022-07-09T03:29:57;99495.19;;;14.93;100.00
929;BME280;451;47.988;7.842;2022-07-09T03:39:00;99494.22;;;14.94;100.00
929;BME280;451;47.988;7.842;2022-07-09T03:48:03;99502.22;;;14.78;100.00
929;BME280;451;47.988;7.842;2022-07-09T03:57:05;99499.91;;;14.75;100.00
929;BME280;451;47.988;7.842;2022-07-09T04:06:08;99495.97;;;14.71;100.00
929;BME280;451;47.988;7.842;2022-07-09T04:15:10;99496.03;;;14.47;100.00
929;BME280;451;47.988;7.842;2022-07-09T04:24:13;99503.78;;;14.57;100.00
929;BME280;451;47.988;7.842;2022-07-09T04:33:18;99508.22;;;14.64;100.00
929;BME280;451;47.988;7.842;2022-07-09T04:42:19;99490.97;;;14.76;100.00
929;BME280;451;47.988;7.842;2022-07-09T04:51:21;99515.94;;;15.21;100.00
929;BME280;451;47.988;7.842;2022-07-09T05:00:23;99503.47;;;15.60;98.65
929;BME280;451;47.988;7.842;2022-07-09T05:09:25;99506.75;;;15.62;97.22
929;BME280;451;47.988;7.842;2022-07-09T05:18:26;99499.03;;;16.13;94.32
929;BME280;451;47.988;7.842;2022-07-09T05:27:28;99466.06;;;16.30;93.03
929;BME280;451;47.988;7.842;2022-07-09T05:36:30;99500.31;;;16.99;89.37
929;BME280;451;47.988;7.842;2022-07-09T05:45:31;99507.13;;;17.22;87.53
929;BME280;451;47.988;7.842;2022-07-09T05:54:33;99506.44;;;17.71;85.92
929;BME280;451;47.988;7.842;2022-07-09T06:03:35;99498.94;;;18.02;83.66
929;BME280;451;47.988;7.842;2022-07-09T06:12:37;99496.13;;;18.66;80.70
929;BME280;451;47.988;7.842;2022-07-09T06:21:39;99497.78;;;19.15;76.83
929;BME280;451;47.988;7.842;2022-07-09T06:30:40;99495.06;;;19.69;71.33
929;BME280;451;47.988;7.842;2022-07-09T06:39:42;99475.16;;;20.04;71.40
929;BME280;451;47.988;7.842;2022-07-09T06:48:46;99484.59;;;20.20;71.11
929;BME280;451;47.988;7.842;2022-07-09T06:57:48;99477.19;;;20.48;69.88
929;BME280;451;47.988;7.842;2022-07-09T07:06:50;99489.75;;;20.99;69.06
929;BME280;451;47.988;7.842;2022-07-09T07:15:52;99478.63;;;21.09;67.88
929;BME280;451;47.988;7.842;2022-07-09T07:24:53;99472.44;;;21.21;66.78
929;BME280;451;47.988;7.842;2022-07-09T07:33:55;99468.03;;;21.33;66.93
929;BME280;451;47.988;7.842;2022-07-09T07:42:57;99490.81;;;21.74;65.35
929;BME280;451;47.988;7.842;2022-07-09T07:51:58;99466.59;;;22.37;62.65
929;BME280;451;47.988;7.842;2022-07-09T08:01:00;99451.44;;;22.49;63.04
929;BME280;451;47.988;7.842;2022-07-09T08:10:02;99459.72;;;22.84;58.71
929;BME280;451;47.988;7.842;2022-07-09T08:19:04;99454.25;;;23.09;55.65
929;BME280;451;47.988;7.842;2022-07-09T08:28:06;99456.16;;;23.20;56.14
929;BME280;451;47.988;7.842;2022-07-09T08:37:08;99444.63;;;23.19;55.04
929;BME280;451;47.988;7.842;2022-07-09T08:46:10;99436.75;;;23.78;54.15
929;BME280;451;47.988;7.842;2022-07-09T08:55:12;99448.78;;;23.45;53.76
929;BME280;451;47.988;7.842;2022-07-09T09:04:14;99437.78;;;23.65;53.19
929;BME280;451;47.988;7.842;2022-07-09T09:13:16;99420.28;;;25.69;47.94
929;BME280;451;47.988;7.842;2022-07-09T09:22:18;99413.34;;;26.45;46.05
929;BME280;451;47.988;7.842;2022-07-09T09:31:27;99401.66;;;28.37;42.53
929;BME280;451;47.988;7.842;2022-07-09T09:40:29;99386.66;;;27.73;43.21
929;BME280;451;47.988;7.842;2022-07-09T09:49:31;99396.84;;;27.60;44.13
929;BME280;451;47.988;7.842;2022-07-09T09:58:34;99405.19;;;27.96;42.60
929;BME280;451;47.988;7.842;2022-07-09T10:07:36;99363.66;;;28.69;40.98
929;BME280;451;47.988;7.842;2022-07-09T10:16:38;99373.03;;;28.46;40.22
929;BME280;451;47.988;7.842;2022-07-09T10:25:44;99351.59;;;27.88;41.29
929;BME280;451;47.988;7.842;2022-07-09T10:34:55;99348.38;;;29.46;39.18
929;BME280;451;47.988;7.842;2022-07-09T10:43:57;99334.63;;;27.97;42.33
929;BME280;451;47.988;7.842;2022-07-09T10:52:59;99328.84;;;27.79;44.11
929;BME280;451;47.988;7.842;2022-07-09T11:02:01;99337.50;;;28.23;42.57
929;BME280;451;47.988;7.842;2022-07-09T11:11:02;99308.88;;;28.37;42.26
929;BME280;451;47.988;7.842;2022-07-09T11:20:05;99314.56;;;27.88;44.21
929;BME280;451;47.988;7.842;2022-07-09T11:29:08;99305.81;;;27.71;44.00
929;BME280;451;47.988;7.842;2022-07-09T11:38:10;99311.09;;;27.24;46.10
929;BME280;451;47.988;7.842;2022-07-09T11:47:12;99281.81;;;26.52;47.07
929;BME280;451;47.988;7.842;2022-07-09T11:56:19;99252.13;;;26.52;46.89
929;BME280;451;47.988;7.842;2022-07-09T12:14:31;99277.75;;;27.40;45.45
929;BME280;451;47.988;7.842;2022-07-09T12:23:33;99264.22;;;27.35;45.47
929;BME280;451;47.988;7.842;2022-07-09T12:32:34;99258.72;;;27.25;44.92
929;BME280;451;47.988;7.842;2022-07-09T12:41:36;99249.13;;;27.39;44.23
929;BME280;451;47.988;7.842;2022-07-09T12:50:38;99240.81;;;27.14;44.50
929;BME280;451;47.988;7.842;2022-07-09T12:59:40;99242.50;;;27.62;43.33
929;BME280;451;47.988;7.842;2022-07-09T13:08:41;99220.53;;;27.48;43.59
929;BME280;451;47.988;7.842;2022-07-09T13:17:43;99221.88;;;27.98;43.08
929;BME280;451;47.988;7.842;2022-07-09T13:26:45;99218.09;;;27.47;43.58
929;BME280;451;47.988;7.842;2022-07-09T13:35:46;99196.47;;;27.47;42.85
929;BME280;451;47.988;7.842;2022-07-09T13:44:48;99198.84;;;27.38;43.50
929;BME280;451;47.988;7.842;2022-07-09T13:53:50;99182.59;;;27.28;44.24
929;BME280;451;47.988;7.842;2022-07-09T14:02:51;99183.38;;;27.71;42.98
929;BME280;451;47.988;7.842;2022-07-09T14:11:53;99185.00;;;28.74;41.56
929;BME280;451;47.988;7.842;2022-07-09T14:20:55;99172.81;;;28.52;41.93
929;BME280;451;47.988;7.842;2022-07-09T14:29:56;99153.34;;;28.80;41.84
929;BME280;451;47.988;7.842;2022-07-09T14:38:59;99129.22;;;28.63;41.37
929;BME280;451;47.988;7.842;2022-07-09T14:48:01;99153.28;;;28.14;41.79
929;BME280;451;47.988;7.842;2022-07-09T14:57:04;99148.41;;;28.26;42.06
929;BME280;451;47.988;7.842;2022-07-09T15:06:06;99146.16;;;27.93;43.09
929;BME280;451;47.988;7.842;2022-07-09T15:15:08;99146.75;;;28.10;42.99
929;BME280;451;47.988;7.842;2022-07-09T15:24:10;99131.22;;;27.65;42.70
929;BME280;451;47.988;7.842;2022-07-09T15:33:12;99126.59;;;27.60;43.86
929;BME280;451;47.988;7.842;2022-07-09T15:42:17;99125.06;;;27.95;42.88
929;BME280;451;47.988;7.842;2022-07-09T15:51:18;99111.91;;;27.41;42.40
929;BME280;451;47.988;7.842;2022-07-09T16:00:20;99108.28;;;27.73;41.83
929;BME280;451;47.988;7.842;2022-07-09T16:09:27;99108.03;;;27.79;41.54
929;BME280;451;47.988;7.842;2022-07-09T16:18:31;99098.66;;;28.22;40.25
929;BME280;451;47.988;7.842;2022-07-09T16:27:33;99098.03;;;27.90;41.06
929;BME280;451;47.988;7.842;2022-07-09T16:36:35;99088.13;;;27.43;41.57
929;BME280;451;47.988;7.842;2022-07-09T16:45:36;99073.69;;;27.85;41.12
929;BME280;451;47.988;7.842;2022-07-09T16:54:40;99076.19;;;27.29;42.39
929;BME280;451;47.988;7.842;2022-07-09T17:03:42;99071.81;;;27.18;42.97
929;BME280;451;47.988;7.842;2022-07-09T17:12:44;99073.09;;;27.67;42.55
929;BME280;451;47.988;7.842;2022-07-09T17:21:46;99070.94;;;27.59;42.18
929;BME280;451;47.988;7.842;2022-07-09T17:30:47;99057.59;;;26.85;43.52
929;BME280;451;47.988;7.842;2022-07-09T17:39:49;99063.06;;;26.96;43.63
929;BME280;451;47.988;7.842;2022-07-09T17:48:51;99073.63;;;26.60;44.17
929;BME280;451;47.988;7.842;2022-07-09T17:57:57;99071.09;;;26.17;45.05
929;BME280;451;47.988;7.842;2022-07-09T18:07:00;99067.03;;;26.19;45.42
929;BME280;451;47.988;7.842;2022-07-09T18:16:02;99064.31;;;26.41;45.06
929;BME280;451;47.988;7.842;2022-07-09T18:25:05;99060.78;;;26.40;45.36
929;BME280;451;47.988;7.842;2022-07-09T18:34:07;99041.75;;;25.93;46.44
929;BME280;451;47.988;7.842;2022-07-09T18:43:08;99043.13;;;25.69;47.15
929;BME280;451;47.988;7.842;2022-07-09T18:52:10;99041.16;;;25.59;47.41
929;BME280;451;47.988;7.842;2022-07-09T19:01:12;99039.50;;;25.37;48.02
929;BME280;451;47.988;7.842;2022-07-09T19:10:14;99050.28;;;25.37;49.06
929;BME280;451;47.988;7.842;2022-07-09T19:19:16;99064.25;;;25.34;49.40
929;BME280;451;47.988;7.842;2022-07-09T19:28:18;99082.19;;;24.34;58.45
929;BME280;451;47.988;7.842;2022-07-09T19:37:20;99080.69;;;23.82;63.38
929;BME280;451;47.988;7.842;2022-07-09T19:46:24;99087.38;;;23.27;68.06
929;BME280;451;47.988;7.842;2022-07-09T19:55:26;99086.97;;;22.96;70.45
929;BME280;451;47.988;7.842;2022-07-09T20:04:28;99081.44;;;22.56;72.51
929;BME280;451;47.988;7.842;2022-07-09T20:13:30;99093.09;;;22.38;73.92
929;BME280;451;47.988;7.842;2022-07-09T20:22:31;99087.81;;;22.31;73.82
929;BME280;451;47.988;7.842;2022-07-09T20:31:33;99096.03;;;22.06;74.59
929;BME280;451;47.988;7.842;2022-07-09T20:40:35;99090.28;;;21.91;75.51
929;BME280;451;47.988;7.842;2022-07-09T20:49:36;99082.59;;;21.65;77.10
929;BME280;451;47.988;7.842;2022-07-09T20:58:38;99093.78;;;21.44;77.90
929;BME280;451;47.988;7.842;2022-07-09T21:07:40;99100.78;;;21.26;79.40
929;BME280;451;47.988;7.842;2022-07-09T21:16:42;99075.69;;;20.84;80.59
929;BME280;451;47.988;7.842;2022-07-09T21:26:02;99098.66;;;20.92;81.79
929;BME280;451;47.988;7.842;2022-07-09T21:35:04;99095.50;;;20.77;82.93
929;BME280;451;47.988;7.842;2022-07-09T21:44:06;99090.69;;;20.67;82.77
929;BME280;451;47.988;7.842;2022-07-09T21:53:08;99089.09;;;20.60;83.87
929;BME280;451;47.988;7.842;2022-07-09T22:02:10;99074.50;;;20.56;84.22
929;BME280;451;47.988;7.842;2022-07-09T22:11:12;99059.22;;;20.44;84.03
929;BME280;451;47.988;7.842;2022-07-09T22:20:13;99072.31;;;20.52;82.87
929;BME280;451;47.988;7.842;2022-07-09T22:29:15;99067.63;;;20.17;85.30
929;BME280;451;47.988;7.842;2022-07-09T22:38:17;99057.00;;;20.10;86.04
929;BME280;451;47.988;7.842;2022-07-09T22:47:19;99062.72;;;19.82;86.86
929;BME280;451;47.988;7.842;2022-07-09T22:56:22;99087.19;;;19.79;86.01
929;BME280;451;47.988;7.842;2022-07-09T23:05:24;99097.00;;;19.85;87.69
929;BME280;451;47.988;7.842;2022-07-09T23:14:26;99108.66;;;19.91;91.78
929;BME280;451;47.988;7.842;2022-07-09T23:23:27;99096.44;;;20.08;89.11
929;BME280;451;47.988;7.842;2022-07-09T23:32:29;99081.78;;;19.92;88.63
929;BME280;451;47.988;7.842;2022-07-09T23:41:31;99104.72;;;19.55;100.00
929;BME280;451;47.988;7.842;2022-07-09T23:50:32;99112.78;;;19.42;100.00
929;BME280;451;47.988;7.842;2022-07-09T23:59:34;99108.88;;;19.51;100.00
